Wardeh — ODUS — position and weather

sailwx.info

Track history (hours):
 
Tides and Currents Weather Stations Pressure Air Temp Water Temp Dewpoint Dewpoint Depression Visibility Wind Speed Wind Dir Waves Ship Positions

Wardeh

Last reported at 2017-Apr-21 19:35 UTC. Time now 2017-Apr-28 06:30 UTC.
Position S 25°02' W 045°48'.

; draft 6.5 m.

Type: Cargo ship. MMSI: 450522000.

Date/timePositionNaut miles runAvg speedWind from/ knotsBaromVisibWave heightAir tempDewpointWater temp
2017-Apr-21 19:35S 25°02' W 045°48'213.8
2017-Apr-21 19:27S 25°01' W 045°46'614.0
2017-Apr-21 19:00S 24°57' W 045°41'713.9
2017-Apr-21 18:30S 24°53' W 045°35'713.8
2017-Apr-21 18:00S 24°49' W 045°28'713.9
2017-Apr-21 17:30S 24°45' W 045°22'714.4
2017-Apr-21 17:01S 24°41' W 045°16'714.7
2017-Apr-21 16:30S 24°37' W 045°09'1014.8
2017-Apr-21 15:49S 24°30' W 045°00'  
Track history (hours):
 
Tides and Currents Weather Stations Pressure Air Temp Water Temp Dewpoint Dewpoint Depression Visibility Wind Speed Wind Dir Waves Ship Positions

Wardeh

Last reported at 2017-Apr-21 19:35 UTC. Time now 2017-Apr-28 06:30 UTC.
Position S 25°02' W 045°48'.

; draft 6.5 m.

Type: Cargo ship. MMSI: 450522000.

Date/timePositionNaut miles runAvg speedWind from/ knotsBaromVisibWave heightAir tempDewpointWater temp
2017-Apr-21 19:35S 25°02' W 045°48'213.8
2017-Apr-21 19:27S 25°01' W 045°46'614.0
2017-Apr-21 19:00S 24°57' W 045°41'713.9
2017-Apr-21 18:30S 24°53' W 045°35'713.8
2017-Apr-21 18:00S 24°49' W 045°28'713.9
2017-Apr-21 17:30S 24°45' W 045°22'714.4
2017-Apr-21 17:01S 24°41' W 045°16'714.7
2017-Apr-21 16:30S 24°37' W 045°09'1014.8
2017-Apr-21 15:49S 24°30' W 045°00'  

Dump ship's entire track history